Terminal Aerodrome Forecast
Issued by NWS Wilmington, NC

Home | Current Version | Previous Version | Text Only | Print | Product List | Glossary On
Versions: 1 2 3 4 5 6 7 8 9 10 11 12 13 14 15 16 17 18
265
FTUS42 KILM 252340
TAFFLO
TAF
KFLO 252340Z 2600/2624 25011G18KT P6SM FEW060
     FM260400 31009KT P6SM SKC
     FM261400 36007KT P6SM SKC=

USA.gov is the U.S. government's official web portal to all federal, state and local government web resources and services.